createdAt,value
2018-04-07T00:00:53.927Z,7.82
2018-04-07T00:03:22.065Z,6.60
2018-04-07T00:05:50.235Z,7.07
2018-04-07T00:08:18.363Z,9.57
2018-04-07T00:10:46.505Z,7.93
2018-04-07T00:13:14.619Z,7.85
2018-04-07T00:15:44.245Z,7.68
2018-04-07T00:18:13.149Z,6.93
2018-04-07T00:20:42.077Z,7.28
2018-04-07T00:23:10.186Z,7.85
2018-04-07T00:25:39.059Z,8.30
2018-04-07T00:28:07.190Z,10.88
2018-04-07T00:30:35.343Z,11.57
2018-04-07T00:33:04.219Z,8.80
2018-04-07T00:35:33.131Z,8.50
2018-04-07T00:38:02.022Z,8.15
2018-04-07T00:40:30.151Z,7.72
2018-04-07T00:42:58.279Z,8.32
2018-04-07T00:45:26.454Z,8.85
2018-04-07T00:47:54.619Z,8.85
2018-04-07T00:50:22.741Z,7.40
2018-04-07T00:52:59.180Z,9.23
2018-04-07T00:55:27.309Z,8.07
2018-04-07T00:57:55.420Z,7.35
2018-04-07T01:00:23.533Z,8.68
2018-04-07T01:02:51.643Z,9.05
2018-04-07T01:05:19.756Z,8.73
2018-04-07T01:07:47.876Z,7.55
2018-04-07T01:10:16.822Z,8.32
2018-04-07T01:12:44.913Z,7.50
2018-04-07T01:15:13.018Z,9.05
2018-04-07T01:17:41.146Z,9.43
2018-04-07T01:20:09.262Z,8.93
2018-04-07T01:22:38.132Z,7.55
2018-04-07T01:25:07.016Z,8.82
2018-04-07T01:27:35.138Z,7.60
2018-04-07T01:30:03.242Z,9.32
2018-04-07T01:32:31.368Z,9.15
2018-04-07T01:34:59.474Z,9.70
2018-04-07T01:37:27.583Z,8.90
2018-04-07T01:39:57.240Z,9.98
2018-04-07T01:42:25.369Z,10.32
2018-04-07T01:44:54.244Z,10.43
2018-04-07T01:47:22.388Z,8.85
2018-04-07T01:49:50.504Z,10.57
2018-04-07T01:52:18.642Z,10.07
2018-04-07T01:54:46.772Z,7.55
2018-04-07T01:57:15.664Z,9.02
2018-04-07T01:59:43.962Z,11.73
2018-04-07T02:02:12.106Z,9.48
2018-04-07T02:04:40.975Z,10.18
2018-04-07T02:07:09.862Z,10.55
2018-04-07T02:09:38.786Z,11.85
2018-04-07T02:12:06.910Z,10.13
2018-04-07T02:14:35.444Z,10.52
2018-04-07T02:17:04.326Z,11.35
2018-04-07T02:19:32.448Z,11.07
2018-04-07T02:22:00.578Z,10.90
2018-04-07T02:24:28.755Z,10.45
2018-04-07T02:26:56.873Z,10.40
2018-04-07T02:29:25.086Z,12.15
2018-04-07T02:31:53.224Z,12.60
2018-04-07T02:34:21.340Z,11.88
2018-04-07T02:36:49.449Z,9.23
2018-04-07T02:39:17.680Z,9.23
2018-04-07T02:41:46.573Z,12.68
2018-04-07T02:44:15.476Z,9.27
2018-04-07T02:46:43.631Z,9.45
2018-04-07T02:49:12.524Z,8.95
2018-04-07T02:51:41.414Z,10.00
2018-04-07T02:54:10.293Z,10.40
2018-04-07T02:56:39.180Z,11.50
2018-04-07T02:59:08.079Z,9.88
2018-04-07T03:01:37.010Z,11.77
2018-04-07T03:04:05.116Z,10.05
2018-04-07T03:06:33.222Z,11.02
2018-04-07T03:09:02.098Z,11.25
2018-04-07T03:11:30.977Z,10.70
2018-04-07T03:13:59.900Z,12.07
2018-04-07T03:16:28.024Z,10.98
2018-04-07T03:18:56.239Z,10.98
2018-04-07T03:21:25.125Z,11.93
2018-04-07T03:23:54.017Z,10.57
2018-04-07T03:26:22.883Z,9.70
2018-04-07T03:28:51.867Z,10.90
2018-04-07T03:31:19.997Z,11.57
2018-04-07T03:33:48.151Z,11.85
2018-04-07T03:36:16.263Z,11.23
2018-04-07T03:38:44.371Z,12.30
2018-04-07T03:41:13.249Z,9.80
2018-04-07T03:43:41.359Z,10.80
2018-04-07T03:46:09.497Z,13.70
2018-04-07T03:48:37.615Z,10.13
2018-04-07T03:51:05.737Z,9.52
2018-04-07T03:53:33.847Z,13.62
2018-04-07T03:56:02.743Z,10.98
2018-04-07T03:58:30.851Z,11.18
2018-04-07T04:00:58.984Z,11.10
2018-04-07T04:03:27.112Z,16.27
2018-04-07T04:05:55.222Z,11.12
2018-04-07T04:08:24.098Z,11.18
2018-04-07T04:10:52.971Z,13.43
2018-04-07T04:13:21.114Z,11.77
2018-04-07T04:15:49.239Z,10.13
2018-04-07T04:18:18.121Z,12.37
2018-04-07T04:20:47.039Z,11.43
2018-04-07T04:23:15.163Z,12.60
2018-04-07T04:25:43.277Z,13.60
2018-04-07T04:28:12.267Z,11.40
2018-04-07T04:30:41.143Z,10.77
2018-04-07T04:33:09.310Z,12.30
2018-04-07T04:35:38.189Z,15.00
2018-04-07T04:38:06.298Z,11.32
2018-04-07T04:40:34.410Z,13.30
2018-04-07T04:43:02.635Z,11.88
2018-04-07T04:45:31.509Z,12.05
2018-04-07T04:47:59.616Z,11.00
2018-04-07T04:50:27.760Z,12.88
2018-04-07T04:52:56.654Z,12.20
2018-04-07T04:55:25.531Z,12.77
2018-04-07T04:57:53.640Z,12.43
2018-04-07T05:00:21.790Z,13.73
2018-04-07T05:02:50.686Z,12.05
2018-04-07T05:05:19.561Z,12.88
2018-04-07T05:07:48.444Z,11.25
2018-04-07T05:10:16.654Z,11.20
2018-04-07T05:12:45.538Z,13.15
2018-04-07T05:15:14.425Z,11.88
2018-04-07T05:17:43.317Z,11.77
2018-04-07T05:20:12.192Z,12.60
2018-04-07T05:22:41.086Z,11.68
2018-04-07T05:25:10.708Z,11.18
2018-04-07T05:27:39.568Z,9.95
2018-04-07T05:30:07.767Z,11.35
2018-04-07T05:32:36.662Z,13.93
2018-04-07T05:35:05.551Z,10.50
2018-04-07T05:37:34.436Z,11.63
2018-04-07T05:40:03.311Z,12.25
2018-04-07T05:42:32.187Z,9.25
2018-04-07T05:45:00.296Z,10.82
2018-04-07T05:47:28.467Z,11.30
2018-04-07T05:49:56.576Z,9.02
2018-04-07T05:52:24.740Z,9.43
2018-04-07T05:54:52.850Z,10.23
2018-04-07T05:57:20.955Z,11.48
2018-04-07T05:59:49.815Z,8.52
2018-04-07T06:02:19.626Z,11.00
2018-04-07T06:04:47.753Z,13.35
2018-04-07T06:07:15.863Z,11.88
2018-04-07T06:09:43.976Z,10.27
2018-04-07T06:12:12.139Z,12.50
2018-04-07T06:14:41.035Z,11.52
2018-04-07T06:17:09.917Z,8.57
2018-04-07T06:19:38.790Z,11.88
2018-04-07T06:22:07.674Z,10.02
2018-04-07T06:24:36.226Z,10.30
2018-04-07T06:27:04.352Z,9.90
2018-04-07T06:29:33.257Z,10.40
2018-04-07T06:32:01.367Z,11.45
2018-04-07T06:34:29.501Z,10.32
2018-04-07T06:36:57.701Z,11.60
2018-04-07T06:39:25.803Z,12.40
2018-04-07T06:41:54.019Z,12.13
2018-04-07T06:44:23.013Z,11.23
2018-04-07T06:46:51.118Z,9.93
2018-04-07T06:49:19.454Z,9.20
2018-04-07T06:51:48.326Z,9.30
2018-04-07T06:54:17.226Z,9.20
2018-04-07T06:56:46.115Z,11.02
2018-04-07T06:59:14.990Z,9.50
2018-04-07T07:01:43.114Z,10.23
2018-04-07T07:04:11.238Z,11.57
2018-04-07T07:06:40.126Z,11.60
2018-04-07T07:09:08.271Z,10.05
2018-04-07T07:11:36.409Z,8.48
2018-04-07T07:14:04.518Z,10.40
2018-04-07T07:16:32.640Z,9.57
2018-04-07T07:19:01.542Z,8.32
2018-04-07T07:21:29.668Z,10.68
2018-04-07T07:23:57.817Z,8.95
2018-04-07T07:26:25.960Z,11.32
2018-04-07T07:28:54.090Z,8.30
2018-04-07T07:31:22.223Z,11.15
2018-04-07T07:33:50.332Z,7.82
2018-04-07T07:36:18.652Z,8.40
2018-04-07T07:38:46.782Z,8.80
2018-04-07T07:41:14.900Z,8.43
2018-04-07T07:43:43.032Z,8.27
2018-04-07T07:46:11.154Z,7.67
2018-04-07T07:48:39.264Z,6.60
2018-04-07T07:51:07.480Z,8.97
2018-04-07T07:53:36.375Z,8.47
2018-04-07T07:56:05.273Z,11.10
2018-04-07T07:58:33.404Z,11.27
2018-04-07T08:01:01.514Z,6.93
2018-04-07T08:03:30.599Z,5.23
2018-04-07T08:05:59.616Z,5.97
2018-04-07T08:08:27.765Z,5.67
2018-04-07T08:10:56.659Z,7.90
2018-04-07T08:13:25.555Z,5.00
2018-04-07T08:15:53.706Z,5.67
2018-04-07T08:18:21.816Z,7.63
2018-04-07T08:20:50.066Z,7.10
2018-04-07T08:23:18.100Z,6.37
2018-04-07T08:25:46.242Z,5.47
2018-04-07T08:28:14.366Z,6.33
2018-04-07T08:30:42.479Z,6.50
2018-04-07T08:33:10.602Z,7.23
2018-04-07T08:35:38.717Z,3.60
2018-04-07T08:38:06.828Z,5.47
2018-04-07T08:40:34.971Z,7.90
2018-04-07T08:43:03.075Z,5.50
2018-04-07T08:45:31.221Z,5.53
2018-04-07T08:47:59.479Z,7.20
2018-04-07T08:50:28.351Z,6.27
2018-04-07T08:52:57.295Z,5.63
2018-04-07T08:55:25.407Z,7.17
2018-04-07T08:57:53.561Z,5.97
2018-04-07T09:00:21.671Z,6.57
2018-04-07T09:02:50.543Z,4.40
2018-04-07T09:05:18.671Z,3.20
2018-04-07T09:07:46.811Z,4.40
2018-04-07T09:10:15.001Z,6.50
2018-04-07T09:12:43.139Z,6.77
2018-04-07T09:15:11.285Z,8.43
2018-04-07T09:17:39.395Z,3.70
2018-04-07T09:20:08.263Z,5.07
2018-04-07T09:22:36.474Z,5.53
2018-04-07T09:25:05.351Z,3.93
2018-04-07T09:27:34.251Z,6.27
2018-04-07T09:30:03.125Z,4.03
2018-04-07T09:32:32.018Z,6.70
2018-04-07T09:35:00.949Z,4.67
2018-04-07T09:37:29.089Z,4.50
2018-04-07T09:39:57.962Z,4.97
2018-04-07T09:42:26.163Z,5.27
2018-04-07T09:44:55.070Z,4.27
2018-04-07T09:47:24.204Z,4.90
2018-04-07T09:49:52.304Z,6.50
2018-04-07T09:52:21.175Z,6.00
2018-04-07T09:54:49.318Z,4.27
2018-04-07T09:57:17.441Z,5.63
2018-04-07T09:59:46.389Z,6.10
2018-04-07T10:02:19.310Z,5.17
2018-04-07T10:04:47.504Z,5.90
2018-04-07T10:07:16.494Z,6.63
2018-04-07T10:09:46.337Z,6.53
2018-04-07T10:12:14.460Z,7.83
2018-04-07T10:14:42.623Z,6.40
2018-04-07T10:17:10.762Z,5.70
2018-04-07T10:19:38.859Z,5.60
2018-04-07T10:22:07.038Z,6.50
2018-04-07T10:24:35.495Z,4.57
2018-04-07T10:27:03.593Z,6.53
2018-04-07T10:29:31.843Z,6.97
2018-04-07T10:31:59.947Z,5.53
2018-04-07T10:34:28.086Z,7.67
2018-04-07T10:36:56.211Z,7.63
2018-04-07T10:39:25.098Z,9.03
2018-04-07T10:41:53.970Z,9.23
2018-04-07T10:44:22.090Z,4.77
2018-04-07T10:46:50.223Z,5.07
2018-04-07T10:49:18.330Z,4.87
2018-04-07T10:51:46.459Z,5.80
2018-04-07T10:54:14.602Z,8.13
2018-04-07T10:56:42.718Z,4.97
2018-04-07T10:59:10.842Z,6.63
2018-04-07T11:01:38.995Z,8.73
2018-04-07T11:04:07.959Z,7.00
2018-04-07T11:06:36.083Z,8.40
2018-04-07T11:09:04.185Z,5.63
2018-04-07T11:11:32.288Z,5.83
2018-04-07T11:14:01.188Z,6.33
2018-04-07T11:16:30.090Z,6.73
2018-04-07T11:18:58.227Z,5.23
2018-04-07T11:21:26.328Z,6.80
2018-04-07T11:23:55.195Z,7.00
2018-04-07T11:26:23.328Z,4.40
2018-04-07T11:28:51.458Z,6.50
2018-04-07T11:31:20.338Z,5.47
2018-04-07T11:33:49.272Z,6.97
2018-04-07T11:36:17.392Z,8.17
2018-04-07T11:38:45.504Z,6.70
2018-04-07T11:41:13.688Z,6.40
2018-04-07T11:43:41.809Z,7.03
2018-04-07T11:46:10.795Z,7.07
2018-04-07T11:48:38.940Z,6.70
2018-04-07T11:51:07.052Z,7.03
2018-04-07T11:53:35.243Z,7.27
2018-04-07T11:56:04.128Z,6.77
2018-04-07T11:58:33.035Z,4.50
2018-04-07T12:01:01.921Z,11.60
2018-04-07T12:03:30.806Z,9.17
2018-04-07T12:05:59.694Z,9.30
2018-04-07T12:08:28.797Z,5.57
2018-04-07T12:10:57.715Z,7.07
2018-04-07T12:13:25.816Z,7.93
2018-04-07T12:15:54.061Z,5.67
2018-04-07T12:18:22.203Z,8.63
2018-04-07T12:20:51.091Z,7.17
2018-04-07T12:23:19.959Z,6.03
2018-04-07T12:25:49.587Z,6.33
2018-04-07T12:28:18.471Z,6.70
2018-04-07T12:30:46.585Z,5.47
2018-04-07T12:33:15.547Z,5.43
2018-04-07T12:35:44.431Z,6.80
2018-04-07T12:38:13.334Z,7.03
2018-04-07T12:40:42.252Z,5.73
2018-04-07T12:43:10.311Z,4.57
2018-04-07T12:45:38.433Z,6.00
2018-04-07T12:48:06.571Z,7.70
2018-04-07T12:50:34.687Z,8.97
2018-04-07T12:53:02.806Z,7.33
2018-04-07T12:55:30.924Z,6.17
2018-04-07T12:57:59.052Z,8.17
2018-04-07T13:00:27.237Z,6.43
2018-04-07T13:02:55.326Z,5.63
2018-04-07T13:05:23.461Z,6.13
2018-04-07T13:07:52.561Z,7.30
2018-04-07T13:10:21.468Z,5.73
2018-04-07T13:12:49.645Z,6.00
2018-04-07T13:15:18.475Z,6.77
2018-04-07T13:17:46.630Z,8.03
2018-04-07T13:20:14.750Z,7.23
2018-04-07T13:22:43.637Z,7.97
2018-04-07T13:25:12.502Z,8.57
2018-04-07T13:27:40.700Z,6.90
2018-04-07T13:30:09.607Z,7.00
2018-04-07T13:32:38.462Z,7.37
2018-04-07T13:35:06.590Z,6.20
2018-04-07T13:37:34.725Z,8.40
2018-04-07T13:40:03.629Z,5.77
2018-04-07T13:42:31.766Z,5.00
2018-04-07T13:44:59.971Z,7.43
2018-04-07T13:47:28.851Z,5.77
2018-04-07T13:49:57.855Z,7.30
2018-04-07T13:52:26.743Z,4.70
2018-04-07T13:54:55.610Z,6.30
2018-04-07T13:57:23.738Z,6.07
2018-04-07T13:59:51.888Z,5.00
2018-04-07T14:02:20.007Z,7.27
2018-04-07T14:04:48.119Z,7.37
2018-04-07T14:07:17.016Z,6.87
2018-04-07T14:09:45.914Z,7.37
2018-04-07T14:12:14.784Z,6.60
2018-04-07T14:14:43.726Z,6.33
2018-04-07T14:17:11.894Z,7.93
2018-04-07T14:19:40.004Z,7.20
2018-04-07T14:22:08.106Z,6.83
2018-04-07T14:24:36.979Z,5.77
2018-04-07T14:27:05.096Z,6.67
2018-04-07T14:29:33.292Z,7.43
2018-04-07T14:32:01.404Z,6.53
2018-04-07T14:34:30.275Z,6.03
2018-04-07T14:36:58.584Z,6.77
2018-04-07T14:39:27.502Z,6.60
2018-04-07T14:41:55.597Z,6.67
2018-04-07T14:44:23.708Z,6.90
2018-04-07T14:46:51.827Z,6.93
2018-04-07T14:49:19.955Z,7.43
2018-04-07T14:51:48.845Z,7.93
2018-04-07T14:54:17.716Z,7.90
2018-04-07T14:56:45.839Z,9.83
2018-04-07T14:59:13.951Z,6.77
2018-04-07T15:01:42.079Z,5.33
2018-04-07T15:04:10.260Z,8.40
2018-04-07T15:06:38.377Z,7.93
2018-04-07T15:09:06.512Z,6.30
2018-04-07T15:11:34.627Z,11.27
2018-04-07T15:14:02.771Z,6.63
2018-04-07T15:16:30.905Z,8.10
2018-04-07T15:18:59.811Z,6.50
2018-04-07T15:21:27.976Z,7.30
2018-04-07T15:23:56.079Z,6.90
2018-04-07T15:26:24.223Z,6.33
2018-04-07T15:28:52.313Z,8.20
2018-04-07T15:31:20.443Z,7.00
2018-04-07T15:33:48.571Z,6.83
2018-04-07T15:36:16.687Z,7.87
2018-04-07T15:38:44.889Z,7.57
2018-04-07T15:41:13.023Z,7.47
2018-04-07T15:43:41.229Z,5.33
2018-04-07T15:46:10.139Z,6.53
2018-04-07T15:48:38.235Z,9.80
2018-04-07T15:51:06.383Z,6.30
2018-04-07T15:53:34.605Z,6.73
2018-04-07T15:56:02.659Z,9.17
2018-04-07T15:58:30.808Z,5.27
2018-04-07T16:00:58.955Z,6.90
2018-04-07T16:03:28.075Z,8.37
2018-04-07T16:05:56.189Z,7.03
2018-04-07T16:08:24.355Z,9.97
2018-04-07T16:10:52.469Z,8.43
2018-04-07T16:13:21.340Z,9.07
2018-04-07T16:15:49.463Z,6.57
2018-04-07T16:18:17.643Z,8.43
2018-04-07T16:20:45.758Z,5.97
2018-04-07T16:23:13.887Z,10.17
2018-04-07T16:25:41.985Z,7.87
2018-04-07T16:28:10.124Z,9.63
2018-04-07T16:30:38.264Z,7.63
2018-04-07T16:33:07.352Z,8.30
2018-04-07T16:35:35.475Z,7.47
2018-04-07T16:38:03.607Z,7.07
2018-04-07T16:40:32.499Z,4.47
2018-04-07T16:43:01.714Z,5.33
2018-04-07T16:45:30.591Z,7.03
2018-04-07T16:47:59.519Z,8.27
2018-04-07T16:50:27.642Z,9.80
2018-04-07T16:52:55.805Z,6.93
2018-04-07T16:55:23.946Z,8.57
2018-04-07T16:57:52.081Z,8.93
2018-04-07T17:00:20.990Z,7.63
2018-04-07T17:02:49.863Z,10.30
2018-04-07T17:05:17.956Z,9.43
2018-04-07T17:07:46.081Z,7.90
2018-04-07T17:10:14.316Z,9.57
2018-04-07T17:12:42.501Z,8.40
2018-04-07T17:15:10.587Z,8.33
2018-04-07T17:17:38.745Z,6.63
2018-04-07T17:20:06.883Z,10.43
2018-04-07T17:22:35.781Z,8.07
2018-04-07T17:25:03.888Z,6.47
2018-04-07T17:27:32.054Z,7.43
2018-04-07T17:30:00.171Z,5.60
2018-04-07T17:32:28.282Z,7.50
2018-04-07T17:34:56.395Z,5.70
2018-04-07T17:37:24.544Z,10.00
2018-04-07T17:39:52.656Z,8.23
2018-04-07T17:42:20.780Z,11.90
2018-04-07T17:44:48.895Z,10.10
2018-04-07T17:47:18.511Z,6.90
2018-04-07T17:49:46.650Z,6.70
2018-04-07T17:52:14.783Z,7.47
2018-04-07T17:54:43.664Z,10.60
2018-04-07T17:57:12.530Z,7.70
2018-04-07T17:59:40.712Z,8.03
2018-04-07T18:02:08.835Z,7.27
2018-04-07T18:04:36.934Z,8.40
2018-04-07T18:07:05.110Z,9.13
2018-04-07T18:09:33.240Z,10.07
2018-04-07T18:12:01.352Z,6.63
2018-04-07T18:14:29.522Z,7.97
2018-04-07T18:16:57.674Z,9.37
2018-04-07T18:19:25.760Z,10.33
2018-04-07T18:21:53.890Z,10.57
2018-04-07T18:24:22.768Z,9.33
2018-04-07T18:26:51.649Z,8.33
2018-04-07T18:29:19.780Z,9.40
2018-04-07T18:31:48.018Z,7.27
2018-04-07T18:34:16.908Z,11.43
2018-04-07T18:36:45.811Z,7.97
2018-04-07T18:39:13.940Z,12.00
2018-04-07T18:41:42.078Z,11.27
2018-04-07T18:44:10.184Z,9.23
2018-04-07T18:46:38.295Z,11.10
2018-04-07T18:49:07.178Z,6.80
2018-04-07T18:51:36.070Z,9.97
2018-04-07T18:54:04.960Z,13.17
2018-04-07T18:56:33.954Z,9.20
2018-04-07T18:59:02.837Z,10.33
2018-04-07T19:01:31.728Z,8.40
2018-04-07T19:04:00.636Z,10.73
2018-04-07T19:06:28.757Z,11.57
2018-04-07T19:08:56.885Z,7.93
2018-04-07T19:11:25.788Z,6.07
2018-04-07T19:13:53.945Z,9.17
2018-04-07T19:16:22.840Z,9.10
2018-04-07T19:18:50.940Z,7.77
2018-04-07T19:21:19.129Z,8.70
2018-04-07T19:23:47.266Z,8.37
2018-04-07T19:26:15.388Z,11.77
2018-04-07T19:28:43.604Z,8.37
2018-04-07T19:31:12.516Z,7.47
2018-04-07T19:33:40.638Z,7.70
2018-04-07T19:36:08.738Z,7.73
2018-04-07T19:38:37.615Z,8.53
2018-04-07T19:41:06.550Z,10.13
2018-04-07T19:43:35.400Z,11.97
2018-04-07T19:46:04.280Z,11.50
2018-04-07T19:48:33.155Z,8.57
2018-04-07T19:51:01.277Z,10.10
2018-04-07T19:53:29.447Z,11.37
2018-04-07T19:55:57.563Z,7.87
2018-04-07T19:58:25.684Z,11.43
2018-04-07T20:00:54.583Z,11.33
2018-04-07T20:03:22.732Z,10.97
2018-04-07T20:05:51.675Z,10.57
2018-04-07T20:08:19.841Z,13.60
2018-04-07T20:10:47.957Z,10.87
2018-04-07T20:13:16.119Z,14.00
2018-04-07T20:15:44.247Z,13.97
2018-04-07T20:18:12.408Z,10.43
2018-04-07T20:20:40.521Z,13.73
2018-04-07T20:23:08.747Z,11.70
2018-04-07T20:25:37.653Z,8.97
2018-04-07T20:28:05.768Z,10.77
2018-04-07T20:30:33.915Z,11.67
2018-04-07T20:33:02.056Z,11.90
2018-04-07T20:35:30.939Z,14.07
2018-04-07T20:37:59.058Z,15.73
2018-04-07T20:40:27.195Z,10.73
2018-04-07T20:42:56.075Z,11.50
2018-04-07T20:45:24.989Z,14.20
2018-04-07T20:47:53.151Z,13.80
2018-04-07T20:50:22.035Z,10.70
2018-04-07T20:52:50.939Z,13.87
2018-04-07T20:55:19.047Z,14.57
2018-04-07T20:57:47.171Z,12.77
2018-04-07T21:00:16.085Z,14.57
2018-04-07T21:02:44.205Z,12.67
2018-04-07T21:05:12.341Z,12.60
2018-04-07T21:07:40.491Z,11.30
2018-04-07T21:10:08.605Z,10.57
2018-04-07T21:12:36.750Z,12.17
2018-04-07T21:15:04.901Z,14.60
2018-04-07T21:17:33.783Z,13.80
2018-04-07T21:20:02.669Z,13.57
2018-04-07T21:22:30.811Z,17.10
2018-04-07T21:24:59.147Z,13.90
2018-04-07T21:27:28.031Z,13.93
2018-04-07T21:29:56.936Z,13.83
2018-04-07T21:32:25.063Z,16.07
2018-04-07T21:34:53.228Z,13.20
2018-04-07T21:37:21.352Z,10.33
2018-04-07T21:39:49.472Z,10.67
2018-04-07T21:42:17.694Z,13.83
2018-04-07T21:44:45.830Z,11.77
2018-04-07T21:47:13.942Z,12.60
2018-04-07T21:49:42.075Z,13.03
2018-04-07T21:52:10.285Z,13.40
2018-04-07T21:54:38.412Z,14.00
2018-04-07T21:57:06.520Z,15.77
2018-04-07T21:59:35.438Z,14.07
2018-04-07T22:02:03.552Z,18.07
2018-04-07T22:04:31.683Z,15.70
2018-04-07T22:06:59.803Z,14.83
2018-04-07T22:09:27.918Z,11.87
2018-04-07T22:11:56.054Z,15.20
2018-04-07T22:14:24.258Z,20.63
2018-04-07T22:16:52.370Z,15.67
2018-04-07T22:19:20.493Z,15.53
2018-04-07T22:21:49.388Z,14.60
2018-04-07T22:24:18.390Z,19.63
2018-04-07T22:26:47.264Z,12.53
2018-04-07T22:29:16.142Z,14.37
2018-04-07T22:31:44.286Z,16.80
2018-04-07T22:34:12.442Z,12.00
2018-04-07T22:36:40.548Z,10.73
2018-04-07T22:39:08.678Z,13.63
2018-04-07T22:41:36.817Z,14.07
2018-04-07T22:44:05.729Z,14.83
2018-04-07T22:46:33.917Z,12.27
2018-04-07T22:49:02.040Z,13.97
2018-04-07T22:51:30.188Z,13.20
2018-04-07T22:53:58.310Z,10.00
2018-04-07T22:56:27.315Z,13.10
2018-04-07T22:58:55.436Z,13.63
2018-04-07T23:01:23.667Z,15.63
2018-04-07T23:03:51.815Z,15.03
2018-04-07T23:06:20.723Z,12.13
2018-04-07T23:08:48.848Z,13.03
2018-04-07T23:11:16.956Z,12.13
2018-04-07T23:13:45.849Z,11.73
2018-04-07T23:16:14.726Z,13.33
2018-04-07T23:18:42.924Z,14.30
2018-04-07T23:21:11.048Z,15.57
2018-04-07T23:23:39.266Z,15.03
2018-04-07T23:26:08.158Z,14.00
2018-04-07T23:28:36.275Z,14.17
2018-04-07T23:31:04.421Z,13.30
2018-04-07T23:33:32.531Z,12.17
2018-04-07T23:36:00.677Z,16.23
2018-04-07T23:38:28.802Z,15.23
2018-04-07T23:40:56.913Z,16.50
2018-04-07T23:43:25.048Z,13.47
2018-04-07T23:45:53.169Z,11.83
2018-04-07T23:48:21.295Z,10.63
2018-04-07T23:50:50.215Z,12.83
2018-04-07T23:53:18.385Z,10.47
2018-04-07T23:55:46.487Z,11.83
2018-04-07T23:58:14.601Z,11.47
